Arrantzale — EBVT — position and weather

sailwx.info

Track history (hours):
 
Tides and Currents Weather Stations Pressure Air Temp Water Temp Dewpoint Dewpoint Depression Visibility Wind Speed Wind Dir Waves Ship Positions

Arrantzale

Last reported at 2017-May-26 16:05 UTC. Time now 2017-May-26 22:45 UTC.
Position N 43°25' W 003°25'.

Length 32 m.

Type: Fishing. MMSI: 224065290.

Date/timePositionNaut miles runAvg speedWind from/ knotsBaromVisibWave heightAir tempDewpointWater temp
2017-May-26 16:05N 43°25' W 003°25'0 4.1
2017-May-26 16:00N 43°25' W 003°25'69 2.3
2017-May-25 10:05N 43°25' W 001°51'110.7
2017-May-25 10:00N 43°25' W 001°50'2 4.3
2017-May-25 09:30N 43°23' W 001°47'0 0.0
2017-May-25 09:00N 43°23' W 001°47'0 0.0
2017-May-25 08:30N 43°23' W 001°47'0 0.4
2017-May-25 08:00N 43°23' W 001°47'510.3
2017-May-25 07:29N 43°28' W 001°49'11 0.8
2017-May-24 17:34N 43°39' W 001°44'0 0.7
2017-May-24 17:07N 43°39' W 001°43'0 1.0
2017-May-24 16:58N 43°39' W 001°43'1 0.6
2017-May-24 15:11N 43°39' W 001°45'2 8.5
2017-May-24 14:57N 43°37' W 001°46'9 8.8
2017-May-24 13:59N 43°28' W 001°47'4 8.9
2017-May-24 13:30N 43°24' W 001°47'1 2.2
2017-May-24 13:00N 43°23' W 001°47'0 0.2
2017-May-24 12:30N 43°23' W 001°48'0 0.0
2017-May-24 12:00N 43°23' W 001°48'0 0.0
2017-May-24 11:30N 43°23' W 001°48'0 0.1
2017-May-24 11:00N 43°23' W 001°47'37 2.7
2017-May-23 21:05N 44°00' W 001°52'0 1.8
2017-May-23 20:51N 44°01' W 001°52'0 0.7
2017-May-23 20:23N 44°01' W 001°52'3 0.2
2017-May-23 03:00N 43°58' W 001°54'0 0.0
2017-May-22 11:26N 43°58' W 001°54'31 8.0
2017-May-22 07:32N 43°27' W 001°51'1 8.6
2017-May-22 07:24N 43°26' W 001°50'3 8.3
2017-May-22 07:01N 43°23' W 001°47'0 1.0
2017-May-22 06:30N 43°23' W 001°47'  
2017-May-18 08:39N 43°23' W 001°47'0 0.0
2017-May-18 08:30N 43°23' W 001°47'0 0.0
2017-May-18 08:00N 43°23' W 001°47'0 0.0
2017-May-18 07:30N 43°23' W 001°47'0 0.0
2017-May-18 05:44N 43°23' W 001°47'0 0.0
2017-May-18 05:30N 43°23' W 001°47'0 0.3
2017-May-18 05:01N 43°23' W 001°47'7 0.8
2017-May-17 21:07N 43°29' W 001°52'110.3
2017-May-17 20:59N 43°28' W 001°51'510.0
2017-May-17 20:30N 43°24' W 001°47'1 1.8
2017-May-17 20:00N 43°23' W 001°48'0 0.0
2017-May-17 19:30N 43°23' W 001°48'0 0.0
2017-May-17 19:00N 43°23' W 001°48'0 0.4
2017-May-17 18:30N 43°23' W 001°47'611.0
2017-May-17 18:00N 43°29' W 001°48'54 7.4
2017-May-17 10:43N 44°20' W 002°10'1 1.3
2017-May-17 09:37N 44°22' W 002°10'0 0.2
2017-May-17 09:30N 44°22' W 002°10'0 0.2
2017-May-17 09:01N 44°22' W 002°10'1 2.9
2017-May-17 08:30N 44°21' W 002°08'3 2.0
2017-May-17 06:58N 44°21' W 002°04'2 2.7
2017-May-17 06:24N 44°20' W 002°05'411.0
2017-May-17 06:00N 44°16' W 002°03'510.9
2017-May-17 05:30N 44°11' W 001°59'510.7
2017-May-17 05:00N 44°06' W 001°56'3 6.5
2017-May-17 04:30N 44°06' W 002°00'12 4.6
2017-May-17 01:58N 44°00' W 002°14'5 1.7
2017-May-16 23:11N 43°56' W 002°15'0 0.4
2017-May-16 23:00N 43°56' W 002°15'0 0.4
2017-May-16 22:29N 43°56' W 002°14'0 0.5
2017-May-16 22:00N 43°56' W 002°14'2 3.9
2017-May-16 21:30N 43°54' W 002°14'0 0.8
2017-May-16 21:00N 43°53' W 002°14'9 6.9
2017-May-16 19:42N 43°53' W 002°01'1 6.5
2017-May-16 19:29N 43°54' W 001°60'0 0.3
2017-May-16 19:01N 43°54' W 001°60'0 0.3
2017-May-16 18:31N 43°54' W 001°60'6 3.7
2017-May-16 16:54N 44°00' W 002°01'410.1
2017-May-16 16:30N 43°56' W 001°60'  
Track history (hours):
 
Tides and Currents Weather Stations Pressure Air Temp Water Temp Dewpoint Dewpoint Depression Visibility Wind Speed Wind Dir Waves Ship Positions

Arrantzale

Last reported at 2017-May-26 16:05 UTC. Time now 2017-May-26 22:45 UTC.
Position N 43°25' W 003°25'.

Length 32 m.

Type: Fishing. MMSI: 224065290.

Date/timePositionNaut miles runAvg speedWind from/ knotsBaromVisibWave heightAir tempDewpointWater temp
2017-May-26 16:05N 43°25' W 003°25'0 4.1
2017-May-26 16:00N 43°25' W 003°25'69 2.3
2017-May-25 10:05N 43°25' W 001°51'110.7
2017-May-25 10:00N 43°25' W 001°50'2 4.3
2017-May-25 09:30N 43°23' W 001°47'0 0.0
2017-May-25 09:00N 43°23' W 001°47'0 0.0
2017-May-25 08:30N 43°23' W 001°47'0 0.4
2017-May-25 08:00N 43°23' W 001°47'510.3
2017-May-25 07:29N 43°28' W 001°49'11 0.8
2017-May-24 17:34N 43°39' W 001°44'0 0.7
2017-May-24 17:07N 43°39' W 001°43'0 1.0
2017-May-24 16:58N 43°39' W 001°43'1 0.6
2017-May-24 15:11N 43°39' W 001°45'2 8.5
2017-May-24 14:57N 43°37' W 001°46'9 8.8
2017-May-24 13:59N 43°28' W 001°47'4 8.9
2017-May-24 13:30N 43°24' W 001°47'1 2.2
2017-May-24 13:00N 43°23' W 001°47'0 0.2
2017-May-24 12:30N 43°23' W 001°48'0 0.0
2017-May-24 12:00N 43°23' W 001°48'0 0.0
2017-May-24 11:30N 43°23' W 001°48'0 0.1
2017-May-24 11:00N 43°23' W 001°47'37 2.7
2017-May-23 21:05N 44°00' W 001°52'0 1.8
2017-May-23 20:51N 44°01' W 001°52'0 0.7
2017-May-23 20:23N 44°01' W 001°52'3 0.2
2017-May-23 03:00N 43°58' W 001°54'0 0.0
2017-May-22 11:26N 43°58' W 001°54'31 8.0
2017-May-22 07:32N 43°27' W 001°51'1 8.6
2017-May-22 07:24N 43°26' W 001°50'3 8.3
2017-May-22 07:01N 43°23' W 001°47'0 1.0
2017-May-22 06:30N 43°23' W 001°47'  
2017-May-18 08:39N 43°23' W 001°47'0 0.0
2017-May-18 08:30N 43°23' W 001°47'0 0.0
2017-May-18 08:00N 43°23' W 001°47'0 0.0
2017-May-18 07:30N 43°23' W 001°47'0 0.0
2017-May-18 05:44N 43°23' W 001°47'0 0.0
2017-May-18 05:30N 43°23' W 001°47'0 0.3
2017-May-18 05:01N 43°23' W 001°47'7 0.8
2017-May-17 21:07N 43°29' W 001°52'110.3
2017-May-17 20:59N 43°28' W 001°51'510.0
2017-May-17 20:30N 43°24' W 001°47'1 1.8
2017-May-17 20:00N 43°23' W 001°48'0 0.0
2017-May-17 19:30N 43°23' W 001°48'0 0.0
2017-May-17 19:00N 43°23' W 001°48'0 0.4
2017-May-17 18:30N 43°23' W 001°47'611.0
2017-May-17 18:00N 43°29' W 001°48'54 7.4
2017-May-17 10:43N 44°20' W 002°10'1 1.3
2017-May-17 09:37N 44°22' W 002°10'0 0.2
2017-May-17 09:30N 44°22' W 002°10'0 0.2
2017-May-17 09:01N 44°22' W 002°10'1 2.9
2017-May-17 08:30N 44°21' W 002°08'3 2.0
2017-May-17 06:58N 44°21' W 002°04'2 2.7
2017-May-17 06:24N 44°20' W 002°05'411.0
2017-May-17 06:00N 44°16' W 002°03'510.9
2017-May-17 05:30N 44°11' W 001°59'510.7
2017-May-17 05:00N 44°06' W 001°56'3 6.5
2017-May-17 04:30N 44°06' W 002°00'12 4.6
2017-May-17 01:58N 44°00' W 002°14'5 1.7
2017-May-16 23:11N 43°56' W 002°15'0 0.4
2017-May-16 23:00N 43°56' W 002°15'0 0.4
2017-May-16 22:29N 43°56' W 002°14'0 0.5
2017-May-16 22:00N 43°56' W 002°14'2 3.9
2017-May-16 21:30N 43°54' W 002°14'0 0.8
2017-May-16 21:00N 43°53' W 002°14'9 6.9
2017-May-16 19:42N 43°53' W 002°01'1 6.5
2017-May-16 19:29N 43°54' W 001°60'0 0.3
2017-May-16 19:01N 43°54' W 001°60'0 0.3
2017-May-16 18:31N 43°54' W 001°60'6 3.7
2017-May-16 16:54N 44°00' W 002°01'410.1
2017-May-16 16:30N 43°56' W 001°60'  

Dump ship's entire track history